Time;durP1;ratioP1;P1;durP2;ratioP2;P2;SDS_P1;SDS_P2;PMS_P1;PMS_P2;Temp;Humidity;BMP_temperature;BMP_pressure;BME280_temperature;BME280_humidity;BME280_pressure;Samples;Min_cycle;Max_cycle;Signal;HPM_P1;HPM_P2
2021/09/02 00:01:56;;;;;;;5.47;1.92;;;15.60;99.90;;;;;;5094811;28;20024;-77
2021/09/02 00:04:29;;;;;;;6.20;2.55;;;15.60;99.90;;;;;;5094734;28;20024;-74
2021/09/02 00:06:56;;;;;;;3.78;1.15;;;15.60;99.90;;;;;;5094702;28;20039;-75
2021/09/02 00:09:21;;;;;;;6.65;1.40;;;15.50;99.90;;;;;;5094888;28;20386;-73
2021/09/02 00:11:47;;;;;;;3.55;1.35;;;15.50;99.90;;;;;;5076317;28;20016;-74
2021/09/02 00:14:13;;;;;;;4.65;1.65;;;15.50;99.90;;;;;;5095925;28;20063;-74
2021/09/02 00:16:40;;;;;;;3.17;1.48;;;15.50;99.90;;;;;;5079517;28;20017;-73
2021/09/02 00:19:05;;;;;;;4.90;1.55;;;15.50;99.90;;;;;;5098217;28;20030;-73
2021/09/02 00:21:31;;;;;;;5.90;2.00;;;15.50;99.90;;;;;;5098276;28;20047;-73
2021/09/02 00:23:56;;;;;;;4.80;2.35;;;15.50;99.90;;;;;;5097501;28;20496;-73
2021/09/02 00:26:22;;;;;;;6.75;2.22;;;15.40;99.90;;;;;;5098070;28;20473;-73
2021/09/02 00:28:47;;;;;;;6.38;1.65;;;15.40;99.90;;;;;;5079858;28;20026;-74
2021/09/02 00:31:13;;;;;;;5.00;2.22;;;15.40;99.90;;;;;;5079792;28;20024;-74
2021/09/02 00:33:39;;;;;;;6.07;1.75;;;15.40;99.90;;;;;;5097723;28;20419;-73
2021/09/02 00:36:04;;;;;;;5.70;2.03;;;15.40;99.90;;;;;;5098105;28;20052;-74
2021/09/02 00:38:32;;;;;;;3.60;1.45;;;15.40;99.90;;;;;;5097324;28;20020;-74
2021/09/02 00:40:58;;;;;;;3.67;1.52;;;15.40;99.90;;;;;;5097770;28;20015;-73
2021/09/02 00:43:24;;;;;;;5.45;1.75;;;15.40;99.90;;;;;;5079230;28;20016;-74
2021/09/02 00:45:49;;;;;;;4.18;1.92;;;15.30;99.90;;;;;;5079345;28;20073;-73
2021/09/02 00:48:15;;;;;;;4.78;1.75;;;15.40;99.90;;;;;;5097330;28;20446;-73
2021/09/02 00:50:41;;;;;;;5.78;1.95;;;15.30;99.90;;;;;;5079156;28;20100;-74
2021/09/02 00:53:06;;;;;;;7.43;1.52;;;15.30;99.90;;;;;;5097476;28;20081;-74
2021/09/02 00:55:32;;;;;;;3.58;1.70;;;15.30;99.90;;;;;;5097388;28;20054;-73
2021/09/02 00:57:59;;;;;;;11.20;2.33;;;15.30;99.90;;;;;;5097358;28;20415;-73
2021/09/02 01:00:25;;;;;;;3.72;1.75;;;15.30;99.90;;;;;;5097788;28;20111;-73
2021/09/02 01:02:50;;;;;;;5.60;1.88;;;15.30;99.90;;;;;;5080048;28;20441;-73
2021/09/02 01:05:19;;;;;;;9.25;1.80;;;15.20;99.90;;;;;;5097589;28;20093;-73
2021/09/02 01:07:45;;;;;;;5.43;2.10;;;15.20;99.90;;;;;;5097383;28;20028;-73
2021/09/02 01:10:12;;;;;;;5.55;1.45;;;15.20;99.90;;;;;;5097652;28;20020;-73
2021/09/02 01:12:50;;;;;;;3.85;1.20;;;15.20;99.90;;;;;;5079425;28;20028;-75
2021/09/02 01:15:21;;;;;;;7.10;1.90;;;15.20;99.90;;;;;;5099051;28;20032;-74
2021/09/02 01:17:51;;;;;;;4.10;1.73;;;15.30;99.90;;;;;;5097192;28;20031;-74
2021/09/02 01:20:24;;;;;;;6.43;2.05;;;15.20;99.90;;;;;;5097238;28;20427;-74
2021/09/02 01:22:51;;;;;;;3.05;1.25;;;15.30;99.90;;;;;;5103905;28;20103;-74
2021/09/02 01:25:32;;;;;;;3.42;1.52;;;15.20;99.90;;;;;;5085276;28;20481;-74
2021/09/02 01:28:00;;;;;;;5.97;1.48;;;15.20;99.90;;;;;;5103916;28;20032;-74
2021/09/02 01:30:26;;;;;;;7.05;1.75;;;15.20;99.90;;;;;;5101449;28;20095;-76
2021/09/02 01:32:54;;;;;;;4.90;1.10;;;15.20;99.90;;;;;;5100423;28;20059;-74
2021/09/02 01:35:21;;;;;;;4.95;1.83;;;15.20;99.90;;;;;;5082121;28;20019;-75
2021/09/02 01:37:50;;;;;;;3.90;1.65;;;15.20;99.90;;;;;;5081799;28;20070;-77
2021/09/02 01:40:22;;;;;;;3.35;1.30;;;15.20;99.90;;;;;;5082071;28;20020;-77
2021/09/02 01:42:47;;;;;;;3.67;1.73;;;15.20;99.90;;;;;;5082008;28;20074;-75
2021/09/02 01:45:14;;;;;;;3.55;1.15;;;15.20;99.90;;;;;;5100612;28;20469;-76
2021/09/02 01:47:40;;;;;;;3.78;1.00;;;15.20;99.90;;;;;;5100407;28;20028;-75
2021/09/02 01:50:08;;;;;;;3.63;1.33;;;15.20;99.90;;;;;;5099844;28;20099;-76
2021/09/02 01:52:34;;;;;;;5.50;0.98;;;15.20;99.90;;;;;;5100337;28;20028;-76
2021/09/02 01:55:01;;;;;;;2.65;1.20;;;15.10;99.90;;;;;;5100100;28;20016;-75
2021/09/02 01:57:27;;;;;;;4.07;1.10;;;15.10;99.90;;;;;;5100032;28;20415;-73
2021/09/02 01:59:52;;;;;;;4.15;1.75;;;15.10;99.90;;;;;;5099762;28;20020;-75
2021/09/02 02:02:18;;;;;;;3.63;1.40;;;15.00;99.90;;;;;;5081765;28;20039;-75
2021/09/02 02:04:43;;;;;;;5.63;1.27;;;15.10;99.90;;;;;;5099747;28;20599;-73
2021/09/02 02:07:09;;;;;;;3.45;1.25;;;15.10;99.90;;;;;;5082254;28;20032;-75
2021/09/02 02:09:34;;;;;;;3.33;1.02;;;15.10;99.90;;;;;;5100060;28;20024;-74
2021/09/02 02:12:00;;;;;;;3.10;1.13;;;15.00;99.90;;;;;;5081757;28;20024;-75
2021/09/02 02:14:26;;;;;;;4.05;1.42;;;15.00;99.90;;;;;;5099773;28;20534;-76
2021/09/02 02:16:52;;;;;;;3.03;0.93;;;15.10;99.90;;;;;;5081760;28;20499;-73
2021/09/02 02:19:17;;;;;;;5.68;1.38;;;15.10;99.90;;;;;;5100212;28;20024;-76
2021/09/02 02:21:43;;;;;;;6.05;1.02;;;15.10;99.90;;;;;;5100389;28;20065;-77
2021/09/02 02:24:09;;;;;;;3.78;1.15;;;15.00;99.90;;;;;;5099692;28;20362;-75
2021/09/02 02:26:34;;;;;;;2.47;0.98;;;15.00;99.90;;;;;;5081865;28;20039;-74
2021/09/02 02:29:00;;;;;;;4.55;1.02;;;15.00;99.90;;;;;;5100260;28;20013;-76
2021/09/02 02:31:25;;;;;;;2.50;1.00;;;15.00;99.90;;;;;;5099642;28;20032;-78
2021/09/02 02:33:51;;;;;;;4.55;1.30;;;15.00;99.90;;;;;;5095472;28;20384;-75
2021/09/02 02:36:17;;;;;;;3.85;0.90;;;15.00;99.90;;;;;;5096429;28;20024;-77
2021/09/02 02:38:42;;;;;;;2.80;1.00;;;15.00;99.90;;;;;;5096682;28;20073;-77
2021/09/02 02:41:08;;;;;;;5.07;1.15;;;15.00;99.90;;;;;;5096433;28;20082;-76
2021/09/02 02:43:33;;;;;;;2.35;1.00;;;15.10;99.90;;;;;;5096295;28;20020;-76
2021/09/02 02:45:59;;;;;;;2.83;1.30;;;16.10;99.90;;;;;;5096117;28;20126;-75
2021/09/02 02:48:25;;;;;;;2.55;0.88;;;15.00;99.90;;;;;;5096249;28;20024;-75
2021/09/02 02:50:50;;;;;;;3.55;1.58;;;15.00;99.90;;;;;;5096078;28;20039;-77
2021/09/02 02:53:16;;;;;;;1.88;0.65;;;15.00;99.90;;;;;;5096258;28;20020;-76
2021/09/02 02:55:42;;;;;;;4.88;1.25;;;15.00;99.90;;;;;;5096430;28;20115;-76
2021/09/02 02:58:08;;;;;;;3.25;0.70;;;15.00;99.90;;;;;;5096136;28;20013;-76
2021/09/02 03:00:33;;;;;;;7.10;1.83;;;15.00;99.90;;;;;;5096226;28;20073;-77
2021/09/02 03:02:59;;;;;;;2.60;0.70;;;15.00;99.90;;;;;;5095876;28;20020;-76
2021/09/02 03:05:25;;;;;;;2.90;0.80;;;15.00;99.90;;;;;;5077705;28;20020;-76
2021/09/02 03:07:50;;;;;;;3.30;0.35;;;15.00;99.90;;;;;;5077827;28;20392;-76
2021/09/02 03:10:16;;;;;;;3.72;1.45;;;15.00;99.90;;;;;;5077572;28;20114;-76
2021/09/02 03:12:41;;;;;;;3.83;0.98;;;15.00;99.90;;;;;;5095798;28;20032;-74
2021/09/02 03:15:11;;;;;;;3.28;1.33;;;15.00;99.90;;;;;;5095687;28;20020;-75
2021/09/02 03:17:37;;;;;;;4.13;1.58;;;15.00;99.90;;;;;;5095736;28;20020;-76
2021/09/02 03:20:04;;;;;;;3.50;1.08;;;15.30;99.90;;;;;;5095392;28;20027;-76
2021/09/02 03:22:30;;;;;;;4.63;1.38;;;15.00;99.90;;;;;;5095482;28;20012;-75
2021/09/02 03:24:55;;;;;;;2.17;0.68;;;15.00;99.90;;;;;;5095310;28;20034;-75
2021/09/02 03:27:21;;;;;;;1.67;0.70;;;15.00;99.90;;;;;;5077437;28;20023;-76
2021/09/02 03:29:47;;;;;;;2.13;0.65;;;15.00;99.90;;;;;;5095549;28;20024;-77
2021/09/02 03:32:12;;;;;;;5.18;0.82;;;15.00;99.90;;;;;;5095382;28;20028;-76
2021/09/02 03:34:38;;;;;;;3.28;1.27;;;15.00;99.90;;;;;;5077088;28;20485;-75
2021/09/02 03:37:06;;;;;;;3.92;0.80;;;15.00;99.90;;;;;;5077127;28;20020;-75
2021/09/02 03:39:32;;;;;;;2.17;0.50;;;15.10;99.90;;;;;;5077193;28;20016;-74
2021/09/02 03:41:58;;;;;;;5.28;1.75;;;15.10;99.90;;;;;;5095656;28;20087;-74
2021/09/02 03:44:23;;;;;;;4.20;0.73;;;15.10;99.90;;;;;;5088216;22;20179;-74
2021/09/02 03:46:49;;;;;;;2.55;0.80;;;15.00;99.90;;;;;;5095485;28;20039;-77
2021/09/02 03:49:14;;;;;;;1.27;0.40;;;15.00;99.90;;;;;;5095081;28;20100;-74
2021/09/02 03:51:40;;;;;;;1.85;0.60;;;15.00;99.90;;;;;;5095555;28;20085;-74
2021/09/02 03:54:05;;;;;;;2.50;0.95;;;15.00;99.90;;;;;;5095311;28;20027;-75
2021/09/02 03:56:31;;;;;;;5.65;1.65;;;15.00;99.90;;;;;;5094967;28;20385;-75
2021/09/02 03:58:57;;;;;;;2.33;0.75;;;15.00;99.90;;;;;;5095268;28;20024;-75
2021/09/02 04:01:22;;;;;;;4.68;1.05;;;15.00;99.90;;;;;;5094829;28;20485;-76
2021/09/02 04:03:48;;;;;;;4.65;0.77;;;15.00;99.90;;;;;;5094819;28;20016;-76
2021/09/02 04:06:13;;;;;;;2.03;0.30;;;15.00;99.90;;;;;;5094789;28;20039;-76
2021/09/02 04:08:39;;;;;;;1.35;0.50;;;15.00;99.90;;;;;;5076537;28;20016;-75
2021/09/02 04:11:05;;;;;;;4.53;0.88;;;15.00;99.90;;;;;;5094841;28;20020;-77
2021/09/02 04:13:31;;;;;;;4.18;0.40;;;15.00;99.90;;;;;;5094478;28;20082;-76
2021/09/02 04:15:56;;;;;;;5.30;0.55;;;15.00;99.90;;;;;;5094850;28;20047;-76
2021/09/02 04:18:22;;;;;;;2.80;0.57;;;15.00;99.90;;;;;;5094732;28;20017;-76
2021/09/02 04:20:47;;;;;;;3.15;0.75;;;15.10;99.90;;;;;;5094700;28;20028;-76
2021/09/02 04:23:13;;;;;;;4.22;0.95;;;15.00;99.90;;;;;;5094030;28;20020;-76
2021/09/02 04:25:38;;;;;;;6.07;0.90;;;15.00;99.90;;;;;;5094225;28;20073;-76
2021/09/02 04:28:04;;;;;;;2.30;0.65;;;15.00;99.90;;;;;;5094077;28;20478;-76
2021/09/02 04:30:30;;;;;;;2.22;0.50;;;14.90;99.90;;;;;;5075917;28;20031;-76
2021/09/02 04:32:56;;;;;;;1.90;0.43;;;14.90;99.90;;;;;;5094229;28;20489;-76
2021/09/02 04:35:22;;;;;;;4.72;0.68;;;14.90;99.90;;;;;;5093998;28;20069;-76
2021/09/02 04:37:48;;;;;;;1.30;0.43;;;14.90;99.90;;;;;;5075784;28;20019;-76
2021/09/02 04:40:15;;;;;;;3.50;0.45;;;14.90;99.90;;;;;;5075808;28;20021;-76
2021/09/02 04:42:41;;;;;;;2.70;0.57;;;14.90;99.90;;;;;;5093762;28;20024;-76
2021/09/02 04:45:07;;;;;;;4.80;0.77;;;14.80;99.90;;;;;;5093479;28;20047;-75
2021/09/02 04:47:33;;;;;;;3.40;0.80;;;14.90;99.90;;;;;;5094293;28;20020;-77
2021/09/02 04:50:00;;;;;;;2.83;0.40;;;14.90;99.90;;;;;;5087185;23;20101;-74
2021/09/02 04:52:26;;;;;;;2.78;1.35;;;14.80;99.90;;;;;;5093987;28;20168;-75
2021/09/02 04:54:52;;;;;;;2.28;0.65;;;14.80;99.90;;;;;;5094199;28;20434;-74
2021/09/02 04:57:19;;;;;;;2.70;0.55;;;14.80;99.90;;;;;;5092869;28;20020;-74
2021/09/02 04:59:45;;;;;;;3.33;0.77;;;14.90;99.90;;;;;;5093483;28;20095;-74
2021/09/02 05:02:11;;;;;;;3.83;1.30;;;14.80;99.90;;;;;;5093489;28;20024;-74
2021/09/02 05:04:37;;;;;;;3.17;0.55;;;14.70;99.90;;;;;;5093685;28;20381;-74
2021/09/02 05:07:03;;;;;;;3.03;1.17;;;14.80;99.90;;;;;;5075358;28;20024;-74
2021/09/02 05:09:28;;;;;;;4.60;0.98;;;14.80;99.90;;;;;;5093486;28;20028;-74
2021/09/02 05:11:53;;;;;;;2.90;0.90;;;14.80;99.90;;;;;;5075299;28;20095;-74
2021/09/02 05:14:19;;;;;;;3.60;0.85;;;14.80;99.90;;;;;;5093604;28;20024;-74
2021/09/02 05:16:45;;;;;;;7.28;1.95;;;14.80;99.90;;;;;;5093554;28;20029;-74
2021/09/02 05:19:10;;;;;;;2.50;0.85;;;14.80;99.90;;;;;;5075523;28;20103;-74
2021/09/02 05:21:36;;;;;;;4.85;1.10;;;14.80;99.90;;;;;;5093262;28;20045;-74
2021/09/02 05:24:01;;;;;;;5.70;1.27;;;14.80;99.90;;;;;;5093216;28;20073;-74
2021/09/02 05:26:27;;;;;;;3.13;0.98;;;14.80;99.90;;;;;;5075138;28;20059;-75
2021/09/02 05:28:52;;;;;;;4.88;1.42;;;14.80;99.90;;;;;;5093158;28;20047;-75
2021/09/02 05:31:18;;;;;;;3.45;0.55;;;14.80;99.90;;;;;;5090603;22;20020;-75
2021/09/02 05:33:43;;;;;;;9.15;1.20;;;14.20;99.90;;;;;;5070824;28;20075;-76
2021/09/02 05:36:10;;;;;;;5.20;1.33;;;14.90;99.90;;;;;;5055380;28;20025;-75
2021/09/02 05:41:55;;;;;;;2.90;1.17;;;15.00;99.90;;;;;;5063609;28;20032;-74
2021/09/02 05:44:21;;;;;;;6.95;1.33;;;15.00;99.90;;;;;;5072661;28;20024;-74
2021/09/02 05:46:46;;;;;;;7.80;1.50;;;15.00;99.90;;;;;;5072900;28;20029;-75
2021/09/02 05:49:14;;;;;;;3.22;0.90;;;15.10;99.90;;;;;;5072711;28;20029;-74
2021/09/02 05:51:40;;;;;;;4.00;0.80;;;15.10;99.90;;;;;;5087166;22;20029;-75
2021/09/02 05:54:06;;;;;;;3.67;1.05;;;15.20;99.90;;;;;;5091548;28;20262;-76
2021/09/02 05:56:31;;;;;;;3.95;0.98;;;15.20;99.90;;;;;;5104669;22;20051;-74
2021/09/02 05:58:57;;;;;;;3.15;1.00;;;15.20;99.90;;;;;;5093009;28;20084;-74
2021/09/02 06:01:22;;;;;;;4.53;1.30;;;15.30;99.90;;;;;;5092330;28;20028;-75
2021/09/02 06:03:48;;;;;;;3.58;1.20;;;15.40;99.90;;;;;;5107129;22;20066;-75
2021/09/02 06:06:17;;;;;;;6.43;1.23;;;15.40;99.90;;;;;;5095296;28;20024;-74
2021/09/02 06:08:42;;;;;;;4.82;1.02;;;15.40;99.90;;;;;;5117099;28;20035;-74
2021/09/02 06:11:08;;;;;;;7.20;1.20;;;15.50;99.90;;;;;;5117252;28;20027;-74
2021/09/02 06:13:34;;;;;;;5.10;1.27;;;15.50;99.90;;;;;;5111930;22;20048;-75
2021/09/02 06:16:03;;;;;;;5.05;1.02;;;15.60;99.90;;;;;;5096695;28;20031;-75
2021/09/02 06:18:29;;;;;;;5.78;1.55;;;15.80;99.90;;;;;;5078529;28;20027;-74
2021/09/02 06:20:56;;;;;;;5.55;1.33;;;15.70;99.90;;;;;;5078937;28;20392;-77
2021/09/02 06:23:22;;;;;;;3.45;1.35;;;15.80;99.90;;;;;;5078996;28;20114;-74
2021/09/02 06:25:47;;;;;;;4.72;1.02;;;15.80;99.90;;;;;;5096579;28;20051;-74
2021/09/02 06:28:13;;;;;;;5.88;0.95;;;15.90;99.90;;;;;;5096677;28;20024;-75
2021/09/02 06:30:39;;;;;;;5.22;1.08;;;15.90;99.90;;;;;;5096706;28;20090;-73
2021/09/02 06:33:05;;;;;;;9.60;1.20;;;16.00;99.90;;;;;;5096853;28;20023;-74
2021/09/02 06:35:30;;;;;;;4.60;1.10;;;16.10;99.90;;;;;;5096699;28;20097;-75
2021/09/02 06:37:56;;;;;;;3.42;1.13;;;16.10;99.90;;;;;;5096721;28;20538;-74
2021/09/02 06:40:22;;;;;;;5.32;1.98;;;16.20;99.90;;;;;;5096301;28;20085;-75
2021/09/02 06:42:48;;;;;;;2.53;1.25;;;16.30;99.90;;;;;;5097065;28;20008;-75
2021/09/02 06:45:13;;;;;;;5.85;1.38;;;16.40;99.90;;;;;;5096269;28;20028;-74
2021/09/02 06:47:40;;;;;;;6.15;1.25;;;16.40;99.90;;;;;;5096217;28;20024;-74
2021/09/02 06:50:10;;;;;;;5.68;1.00;;;16.50;99.90;;;;;;5078362;28;20024;-76
2021/09/02 06:52:36;;;;;;;6.22;1.10;;;16.60;99.90;;;;;;5108209;22;20047;-73
2021/09/02 06:55:03;;;;;;;4.93;1.02;;;16.70;99.90;;;;;;5115382;22;20020;-75
2021/09/02 06:57:29;;;;;;;2.90;0.80;;;16.80;99.90;;;;;;5116777;28;20020;-74
2021/09/02 06:59:55;;;;;;;4.18;0.95;;;16.80;99.90;;;;;;5116572;28;20015;-73
2021/09/02 07:02:21;;;;;;;4.57;1.08;;;16.90;99.90;;;;;;5116347;28;20473;-75
2021/09/02 07:04:47;;;;;;;4.15;0.88;;;17.00;99.90;;;;;;5116111;28;20027;-74
2021/09/02 07:07:12;;;;;;;4.43;1.83;;;17.10;99.90;;;;;;5097756;28;20055;-74
2021/09/02 07:09:38;;;;;;;3.53;0.98;;;17.20;99.90;;;;;;5116025;28;20077;-74
2021/09/02 07:12:04;;;;;;;5.53;1.45;;;17.30;99.90;;;;;;5116008;28;20023;-74
2021/09/02 07:14:31;;;;;;;6.40;1.45;;;17.40;99.90;;;;;;5097467;28;20103;-74
2021/09/02 07:16:56;;;;;;;4.25;0.85;;;17.50;99.90;;;;;;5115918;28;20548;-74
2021/09/02 07:19:22;;;;;;;6.45;1.05;;;17.60;99.90;;;;;;5096913;28;20027;-74
2021/09/02 07:21:48;;;;;;;3.97;1.05;;;17.70;99.90;;;;;;5115999;28;20408;-74
2021/09/02 07:24:14;;;;;;;4.45;1.27;;;17.80;99.90;;;;;;5115668;28;20102;-74
2021/09/02 07:26:40;;;;;;;6.45;1.63;;;17.80;99.90;;;;;;5115634;28;20103;-74
2021/09/02 07:29:08;;;;;;;4.47;0.90;;;17.90;99.90;;;;;;5116196;28;20024;-74
2021/09/02 07:31:36;;;;;;;4.35;0.75;;;18.00;99.90;;;;;;5097376;28;20439;-74
2021/09/02 07:34:02;;;;;;;3.38;0.80;;;18.10;99.90;;;;;;5115511;28;20027;-74
2021/09/02 07:36:27;;;;;;;3.95;0.57;;;18.10;99.90;;;;;;5115543;28;20027;-74
2021/09/02 07:38:53;;;;;;;4.57;1.00;;;18.10;99.90;;;;;;5115623;28;20490;-77
2021/09/02 07:41:19;;;;;;;4.75;0.60;;;18.20;99.90;;;;;;5115998;28;20091;-74
2021/09/02 07:43:44;;;;;;;3.60;0.75;;;18.20;99.90;;;;;;5097333;28;20027;-77
2021/09/02 07:46:10;;;;;;;5.40;1.00;;;18.30;99.90;;;;;;5110361;22;20078;-73
2021/09/02 07:48:36;;;;;;;3.67;0.82;;;18.30;99.90;;;;;;5095518;28;20107;-75
2021/09/02 07:51:05;;;;;;;5.45;0.88;;;18.40;99.90;;;;;;5095262;28;20066;-75
2021/09/02 07:53:30;;;;;;;;;;;18.50;99.90;;;;;;5095376;28;20020;-74
2021/09/02 07:55:56;;;;;;;3.85;0.40;;;18.60;99.90;;;;;;5094847;28;19935;-74
2021/09/02 07:58:22;;;;;;;4.50;0.80;;;18.70;99.90;;;;;;5095022;28;20035;-75
2021/09/02 08:00:48;;;;;;;4.35;0.95;;;18.70;99.90;;;;;;5094935;28;20016;-76
2021/09/02 08:03:14;;;;;;;1.25;0.30;;;18.80;99.90;;;;;;5095600;28;20024;-73
2021/09/02 08:05:39;;;;;;;4.30;0.88;;;18.80;99.90;;;;;;5106003;22;20054;-74
2021/09/02 08:08:06;;;;;;;4.75;1.02;;;18.90;99.90;;;;;;5095137;28;20024;-74
2021/09/02 08:10:32;;;;;;;4.47;0.50;;;18.90;99.90;;;;;;5094647;28;20451;-73
2021/09/02 08:12:58;;;;;;;3.08;0.73;;;18.90;99.90;;;;;;5094783;28;20492;-73
2021/09/02 08:15:23;;;;;;;1.65;0.55;;;18.90;99.90;;;;;;5106267;22;20044;-76
2021/09/02 08:17:50;;;;;;;3.40;0.40;;;19.00;99.90;;;;;;5094569;28;20016;-77
2021/09/02 08:20:17;;;;;;;3.03;0.57;;;19.00;99.90;;;;;;5094694;28;20500;-75
2021/09/02 08:22:43;;;;;;;2.08;0.63;;;19.00;99.90;;;;;;5106124;22;20140;-74
2021/09/02 08:25:10;;;;;;;4.13;0.70;;;19.00;99.90;;;;;;5094414;28;20043;-75
2021/09/02 08:27:36;;;;;;;1.67;0.40;;;19.10;99.90;;;;;;5094302;28;20028;-75
2021/09/02 08:30:04;;;;;;;2.67;0.47;;;19.40;99.90;;;;;;5093848;28;20477;-77
2021/09/02 08:32:29;;;;;;;8.43;1.08;;;19.60;99.90;;;;;;5105687;22;20052;-74
2021/09/02 08:34:55;;;;;;;4.95;0.43;;;19.80;99.90;;;;;;5094162;28;20512;-74
2021/09/02 08:37:20;;;;;;;3.60;0.98;;;19.80;99.30;;;;;;5094761;28;20480;-73
2021/09/02 08:39:46;;;;;;;5.07;1.40;;;19.80;99.50;;;;;;5075916;28;20035;-75
2021/09/02 08:42:15;;;;;;;2.28;0.47;;;19.80;98.60;;;;;;5075926;28;20016;-74
2021/09/02 08:44:42;;;;;;;2.92;0.35;;;19.70;98.90;;;;;;5094285;28;20032;-73
2021/09/02 08:47:09;;;;;;;3.15;0.25;;;19.70;98.50;;;;;;5087146;23;20044;-73
2021/09/02 08:49:34;;;;;;;2.13;0.50;;;19.50;98.20;;;;;;5094012;28;20031;-74
2021/09/02 08:52:00;;;;;;;5.50;0.65;;;19.50;99.60;;;;;;5093811;28;20024;-73
2021/09/02 08:54:26;;;;;;;2.22;0.40;;;19.30;99.50;;;;;;5094101;28;20018;-74
2021/09/02 08:56:52;;;;;;;4.07;0.35;;;19.20;99.70;;;;;;5094200;28;20077;-75
2021/09/02 08:59:17;;;;;;;5.63;1.10;;;19.30;99.90;;;;;;5093742;28;20465;-77
2021/09/02 09:01:48;;;;;;;2.22;0.57;;;19.00;99.90;;;;;;5075969;28;20487;-74
2021/09/02 09:04:14;;;;;;;3.75;0.47;;;18.90;99.90;;;;;;5093780;28;20044;-75
2021/09/02 09:06:41;;;;;;;2.95;0.93;;;18.90;99.90;;;;;;5075587;28;20069;-74
2021/09/02 09:09:14;;;;;;;4.03;0.57;;;18.80;99.90;;;;;;5093627;28;20496;-74
2021/09/02 09:11:50;;;;;;;2.78;0.40;;;18.90;99.90;;;;;;5087479;22;20039;-73
2021/09/02 09:14:26;;;;;;;6.57;0.60;;;18.80;99.20;;;;;;5128329;22;20068;-75
2021/09/02 09:16:54;;;;;;;1.52;0.20;;;18.80;99.90;;;;;;5075636;28;20024;-75
2021/09/02 09:19:50;;;;;;;1.92;0.40;;;18.90;99.90;;;;;;5075702;28;20043;-73
2021/09/02 09:22:18;;;;;;;2.88;0.80;;;19.00;99.90;;;;;;5094133;28;20122;-74
2021/09/02 09:24:54;;;;;;;2.55;0.40;;;19.20;99.90;;;;;;5075506;28;20116;-74
2021/09/02 09:27:33;;;;;;;3.22;0.50;;;19.40;99.90;;;;;;5093754;28;20031;-73
2021/09/02 09:30:04;;;;;;;;;;;19.60;99.50;;;;;;5094261;28;20032;-74
2021/09/02 09:32:51;;;;;;;3.90;0.45;;;19.70;97.80;;;;;;5093607;28;19904;-75
2021/09/02 09:35:18;;;;;;;1.42;0.45;;;19.70;97.60;;;;;;5079492;28;20046;-74
2021/09/02 09:37:46;;;;;;;6.22;0.60;;;19.70;96.60;;;;;;5093865;28;20560;-78
2021/09/02 09:40:13;;;;;;;5.97;1.00;;;19.70;98.10;;;;;;5104845;22;20076;-76
2021/09/02 09:42:39;;;;;;;4.28;0.63;;;19.70;99.70;;;;;;5077084;28;20028;-74
2021/09/02 09:45:10;;;;;;;1.83;0.60;;;20.00;99.90;;;;;;5133494;22;20493;-78
2021/09/02 09:47:37;;;;;;;3.55;0.30;;;20.00;99.90;;;;;;5079330;28;20480;-74
2021/09/02 09:50:09;;;;;;;1.65;0.52;;;20.10;99.90;;;;;;5079443;28;20016;-73
2021/09/02 09:52:41;;;;;;;1.50;0.30;;;20.20;98.60;;;;;;5079142;28;20016;-74
2021/09/02 09:55:16;;;;;;;3.35;0.50;;;20.40;98.10;;;;;;5097160;28;20024;-75
2021/09/02 09:57:43;;;;;;;3.72;0.63;;;20.50;97.70;;;;;;5078876;28;20016;-74
2021/09/02 10:00:14;;;;;;;3.97;0.70;;;20.50;97.40;;;;;;5079118;28;20039;-73
2021/09/02 10:02:44;;;;;;;4.38;0.75;;;20.60;97.40;;;;;;5104365;28;20030;-74
2021/09/02 10:05:13;;;;;;;5.93;1.05;;;20.60;96.60;;;;;;5097244;28;20038;-73
2021/09/02 10:07:41;;;;;;;3.22;0.35;;;20.50;95.70;;;;;;5117474;28;20120;-75
2021/09/02 10:10:13;;;;;;;2.67;0.45;;;20.50;95.50;;;;;;5115924;28;20020;-73
2021/09/02 10:12:44;;;;;;;3.45;0.82;;;20.50;97.10;;;;;;5085999;22;20151;-75
2021/09/02 10:15:15;;;;;;;2.00;0.63;;;20.60;96.50;;;;;;5077532;28;20400;-73
2021/09/02 10:17:43;;;;;;;3.42;0.82;;;20.60;94.00;;;;;;5058654;28;20023;-77
2021/09/02 10:20:22;;;;;;;2.60;0.63;;;20.60;94.90;;;;;;5076223;28;20485;-75
2021/09/02 10:22:50;;;;;;;4.30;0.90;;;20.70;93.50;;;;;;5057903;28;20021;-74
2021/09/02 10:25:34;;;;;;;4.68;1.02;;;20.80;95.20;;;;;;5058342;28;20127;-73
2021/09/02 10:28:11;;;;;;;1.77;0.52;;;20.90;95.60;;;;;;5076350;28;20037;-75
2021/09/02 10:30:52;;;;;;;3.60;0.60;;;21.00;95.20;;;;;;5045783;28;20035;-75
2021/09/02 10:33:44;;;;;;;5.18;0.57;;;20.90;94.50;;;;;;5062291;28;20135;-74
2021/09/02 10:36:15;;;;;;;2.20;0.40;;;21.00;96.90;;;;;;5067277;28;20023;-74
2021/09/02 10:38:46;;;;;;;5.10;0.68;;;21.10;95.30;;;;;;5067372;28;20431;-74
2021/09/02 10:41:13;;;;;;;3.92;0.68;;;21.10;96.50;;;;;;5057007;28;20487;-75
2021/09/02 10:43:44;;;;;;;4.85;0.85;;;21.10;95.00;;;;;;5075813;28;20023;-75
2021/09/02 10:46:32;;;;;;;3.60;0.82;;;21.10;94.10;;;;;;5075505;28;20041;-74
2021/09/02 10:49:14;;;;;;;3.30;0.67;;;21.10;95.20;;;;;;5058005;28;20032;-77
2021/09/02 10:51:42;;;;;;;2.03;0.85;;;20.90;94.40;;;;;;5075938;28;20267;-75
2021/09/02 10:54:10;;;;;;;2.75;0.80;;;21.00;95.70;;;;;;5074455;28;20394;-75
2021/09/02 10:56:52;;;;;;;2.33;0.90;;;21.10;94.60;;;;;;5075724;28;20025;-75
2021/09/02 10:59:42;;;;;;;3.55;1.23;;;21.00;94.30;;;;;;5075711;28;20131;-73
2021/09/02 11:02:10;;;;;;;2.72;0.82;;;21.00;94.30;;;;;;5075073;28;20029;-76
2021/09/02 11:04:40;;;;;;;3.08;0.70;;;21.00;93.60;;;;;;5075403;28;20035;-75
2021/09/02 11:07:06;;;;;;;6.18;1.63;;;21.00;93.20;;;;;;5075744;28;20518;-74
2021/09/02 11:09:39;;;;;;;4.75;1.38;;;20.90;92.20;;;;;;5057546;28;20059;-74
2021/09/02 11:12:13;;;;;;;3.35;1.00;;;20.90;91.40;;;;;;5075436;28;20115;-74
2021/09/02 11:14:41;;;;;;;4.63;1.13;;;20.90;91.60;;;;;;5057607;28;20390;-74
2021/09/02 11:17:08;;;;;;;5.15;1.05;;;20.90;93.00;;;;;;5056845;28;20021;-76
2021/09/02 11:19:36;;;;;;;4.53;1.27;;;20.90;94.40;;;;;;5057446;28;20027;-73
2021/09/02 11:22:16;;;;;;;2.83;0.82;;;21.30;92.50;;;;;;5075323;28;20035;-74
2021/09/02 11:24:47;;;;;;;3.20;0.68;;;21.30;89.90;;;;;;5074768;28;20138;-75
2021/09/02 11:27:33;;;;;;;3.25;0.82;;;21.30;91.40;;;;;;5075289;28;20024;-74
2021/09/02 11:30:33;;;;;;;2.42;0.65;;;21.30;92.60;;;;;;5057188;28;20024;-75
2021/09/02 11:33:00;;;;;;;3.20;1.30;;;21.30;92.80;;;;;;5014851;28;20174;-73
2021/09/02 11:35:26;;;;;;;2.70;0.90;;;21.40;91.90;;;;;;5056881;28;20060;-76
2021/09/02 11:37:52;;;;;;;5.95;1.10;;;21.40;92.50;;;;;;5074964;28;20016;-76
2021/09/02 11:40:35;;;;;;;3.42;1.27;;;21.30;94.00;;;;;;5057822;28;20028;-74
2021/09/02 11:43:02;;;;;;;3.95;1.33;;;21.30;91.90;;;;;;5104996;22;20079;-77
2021/09/02 11:45:30;;;;;;;3.65;1.30;;;21.20;92.10;;;;;;5076657;28;20557;-74
2021/09/02 11:48:02;;;;;;;5.05;1.25;;;21.40;92.40;;;;;;5094789;28;20031;-74
2021/09/02 11:50:28;;;;;;;4.18;1.10;;;21.70;92.40;;;;;;5095542;28;20380;-74
2021/09/02 11:52:53;;;;;;;3.75;1.25;;;22.00;89.00;;;;;;5094791;28;20035;-75
2021/09/02 11:55:32;;;;;;;6.30;1.00;;;22.40;90.00;;;;;;5075923;28;20024;-77
2021/09/02 11:58:00;;;;;;;5.63;1.80;;;22.70;86.80;;;;;;5082671;28;20028;-77
2021/09/02 12:00:29;;;;;;;2.27;1.00;;;23.10;84.30;;;;;;5076918;28;20043;-76
2021/09/02 12:03:00;;;;;;;4.05;0.95;;;23.00;82.80;;;;;;5094865;28;20103;-75
2021/09/02 12:05:38;;;;;;;2.20;0.68;;;22.70;83.40;;;;;;5076548;28;20489;-75
2021/09/02 12:08:11;;;;;;;4.07;1.30;;;22.30;83.70;;;;;;5095336;28;20028;-75
2021/09/02 12:10:38;;;;;;;4.03;1.48;;;22.40;85.70;;;;;;5094424;28;20028;-75
2021/09/02 12:13:23;;;;;;;2.65;1.13;;;22.90;86.10;;;;;;5076231;28;20052;-75
2021/09/02 12:16:10;;;;;;;3.10;0.90;;;23.10;80.20;;;;;;5094084;28;20035;-75
2021/09/02 12:18:38;;;;;;;2.40;0.93;;;23.30;81.10;;;;;;5076046;28;20073;-75
2021/09/02 12:21:12;;;;;;;3.22;0.88;;;23.80;83.40;;;;;;5095557;28;20019;-75
2021/09/02 12:24:09;;;;;;;3.78;1.13;;;24.00;77.20;;;;;;5095371;28;20016;-75
2021/09/02 12:26:54;;;;;;;4.22;1.30;;;24.20;71.50;;;;;;5074272;28;20036;-75
2021/09/02 12:29:22;;;;;;;5.30;1.38;;;24.10;73.10;;;;;;5076704;28;20028;-75
2021/09/02 12:31:49;;;;;;;5.50;1.43;;;24.40;77.10;;;;;;5094085;28;20392;-76
2021/09/02 12:34:30;;;;;;;6.75;1.90;;;24.80;75.60;;;;;;5093932;28;20047;-75
2021/09/02 12:37:04;;;;;;;4.18;1.38;;;24.90;68.80;;;;;;5094064;28;20024;-75
2021/09/02 12:39:34;;;;;;;5.30;1.20;;;25.00;70.00;;;;;;5095090;28;20381;-76
2021/09/02 12:42:06;;;;;;;2.28;1.05;;;25.30;70.30;;;;;;5094613;28;20028;-78
2021/09/02 12:44:37;;;;;;;5.40;1.40;;;25.50;69.30;;;;;;5077026;28;20020;-78
2021/09/02 12:47:17;;;;;;;4.13;0.85;;;25.90;72.70;;;;;;5076559;28;20024;-75
2021/09/02 12:49:52;;;;;;;5.15;1.00;;;26.20;67.40;;;;;;5093987;28;20020;-76
2021/09/02 12:52:18;;;;;;;6.30;1.60;;;26.40;65.80;;;;;;5075778;28;20054;-74
2021/09/02 12:55:17;;;;;;;4.63;1.20;;;26.50;65.70;;;;;;5076051;28;20028;-74
2021/09/02 12:57:54;;;;;;;2.08;1.00;;;26.60;61.70;;;;;;5094242;28;20020;-78